リュブリャナ の空港の天気 - METARとTAF

リュブリャナ空港 ( LJLJ / LJU ) - スロベニア リュブリャナ
飛行場実況気象(Metar)
観測時間05/26 04:00 CEST (05/26 02:00 UTC)
風向・風速東 2m/s
視程10km以上
天気現象
全天の8割程度の雲 雲底高度 1220m
気温15℃
湿度88%
気圧1022hPa
METARLJLJ 260200Z 08003KT 9999 BKN040 15/13 Q1022 NOSIG
過去の天気等 Google飛行場航空写真 Wunderground天気予報

過去48時間のMETAR

飛行場予報(TAF)
発表時間: 5/26 01:00 CEST (5/25 23:00 UTC)
予報対象時間: 26日2時 CEST ~ 27日2時 CEST
風向・風速東 3m/s
視程10km以上
全天の8割程度の雲 雲底高度 1220m
26日2時 CEST ~ 26日5時 CEST に 確率 30% で一時的に
天気現象しゅう雨
全天の8割程度の塔状積雲 雲底高度 1220m
TAF LJLJ 252300Z 2600/2700 10005KT 9999 BKN040
PROB30 TEMPO 2600/2603 SHRA BKN040TCU